Time;durP1;ratioP1;P1;durP2;ratioP2;P2;SDS_P1;SDS_P2;PMS_P1;PMS_P2;Temp;Humidity;BMP_temperature;BMP_pressure;BME280_temperature;BME280_humidity;BME280_pressure;Samples;Min_cycle;Max_cycle;Signal;HPM_P1;HPM_P2
2022/01/15 00:00:34;;;;;;;4.65;2.88;;;7.10;99.90;;;;;;5002628;28;20061;-77
2022/01/15 00:02:59;;;;;;;2.65;2.00;;;7.10;99.90;;;;;;5020520;28;20321;-77
2022/01/15 00:05:25;;;;;;;1.08;1.00;;;7.10;99.90;;;;;;5020923;28;20098;-77
2022/01/15 00:07:52;;;;;;;1.48;1.25;;;7.10;99.90;;;;;;5019587;28;20046;-77
2022/01/15 00:10:21;;;;;;;2.28;2.05;;;7.00;99.90;;;;;;5020683;28;20542;-77
2022/01/15 00:12:47;;;;;;;1.92;1.35;;;7.10;99.90;;;;;;5021344;28;20041;-77
2022/01/15 00:15:52;;;;;;;3.72;2.63;;;7.00;99.90;;;;;;5001781;28;20413;-77
2022/01/15 00:18:11;;;;;;;1.02;0.80;;;7.00;99.90;;;;;;4998681;28;20139;-77
2022/01/15 00:20:37;;;;;;;1.13;0.98;;;7.00;99.90;;;;;;5002246;28;20038;-77
2022/01/15 00:23:03;;;;;;;2.45;2.25;;;7.00;99.90;;;;;;5001223;28;20531;-77
2022/01/15 00:25:31;;;;;;;1.50;1.40;;;7.10;99.90;;;;;;5020843;28;20045;-78
2022/01/15 00:27:57;;;;;;;2.22;2.03;;;7.00;99.90;;;;;;5019555;28;20087;-77
2022/01/15 00:30:24;;;;;;;1.23;1.23;;;7.00;99.90;;;;;;5019816;28;20048;-77
2022/01/15 00:32:52;;;;;;;2.15;1.80;;;7.00;99.90;;;;;;5002513;28;20115;-77
2022/01/15 00:35:19;;;;;;;1.58;1.48;;;7.00;99.90;;;;;;5002120;28;20095;-77
2022/01/15 00:37:45;;;;;;;2.97;1.38;;;7.00;99.90;;;;;;5018467;28;20536;-77
2022/01/15 00:40:14;;;;;;;3.47;1.92;;;7.00;99.90;;;;;;5002448;28;20319;-77
2022/01/15 00:42:40;;;;;;;1.52;1.42;;;7.00;99.90;;;;;;5002433;28;20057;-77
2022/01/15 00:45:12;;;;;;;1.90;1.73;;;7.00;99.90;;;;;;5019900;28;20049;-77
2022/01/15 00:47:37;;;;;;;1.57;1.47;;;7.00;99.90;;;;;;5019358;28;20049;-77
2022/01/15 00:50:05;;;;;;;2.88;1.50;;;7.00;99.90;;;;;;5020807;28;20436;-77
2022/01/15 00:52:30;;;;;;;3.75;2.05;;;7.00;99.90;;;;;;5001276;28;20053;-77
2022/01/15 00:54:56;;;;;;;1.77;1.38;;;7.00;99.90;;;;;;5019818;28;20393;-77
2022/01/15 00:57:22;;;;;;;2.08;1.02;;;7.00;99.90;;;;;;5001824;28;20049;-78
2022/01/15 00:59:48;;;;;;;1.52;1.42;;;7.00;99.90;;;;;;5020272;28;20042;-77
2022/01/15 01:02:14;;;;;;;0.80;0.80;;;7.00;99.90;;;;;;5020411;28;20050;-77
2022/01/15 01:04:40;;;;;;;1.08;0.98;;;6.90;99.90;;;;;;5002199;28;20037;-77
2022/01/15 01:07:06;;;;;;;1.48;1.38;;;6.90;99.90;;;;;;5000390;28;20055;-77
2022/01/15 01:09:53;;;;;;;2.38;1.80;;;6.90;99.90;;;;;;5001796;28;20416;-77
2022/01/15 01:12:27;;;;;;;1.50;1.40;;;6.90;99.90;;;;;;5020069;28;20119;-77
2022/01/15 01:20:35;;;;;;;1.90;1.80;;;6.90;99.90;;;;;;5002076;28;20095;-77
2022/01/15 01:23:00;;;;;;;3.55;3.15;;;6.90;99.90;;;;;;5000959;28;20057;-77
2022/01/15 01:25:33;;;;;;;1.80;1.70;;;6.90;99.90;;;;;;5001925;28;20504;-77
2022/01/15 01:28:06;;;;;;;2.92;1.45;;;6.90;99.90;;;;;;5019981;28;20080;-77
2022/01/15 01:30:39;;;;;;;1.95;1.85;;;6.90;99.90;;;;;;5019681;28;20403;-78
2022/01/15 01:33:27;;;;;;;2.58;1.60;;;6.90;99.90;;;;;;5019621;28;20673;-77
2022/01/15 01:38:52;;;;;;;3.22;2.47;;;6.90;99.90;;;;;;5018142;28;20563;-77
2022/01/15 01:41:20;;;;;;;1.00;1.00;;;6.80;99.90;;;;;;5002047;28;20053;-77
2022/01/15 01:43:55;;;;;;;2.15;1.70;;;6.80;99.90;;;;;;5019566;28;20049;-77
2022/01/15 01:48:52;;;;;;;1.00;1.00;;;6.90;99.90;;;;;;5019264;28;20393;-77
2022/01/15 01:51:26;;;;;;;5.40;2.70;;;6.80;99.90;;;;;;5001222;28;20530;-77
2022/01/15 01:53:53;;;;;;;10.25;7.60;;;6.90;99.90;;;;;;5018997;28;20084;-77
2022/01/15 01:56:19;;;;;;;7.63;5.68;;;6.80;99.90;;;;;;5001549;28;20511;-77
2022/01/15 01:58:45;;;;;;;10.07;5.30;;;6.90;99.90;;;;;;5002036;28;20056;-77
2022/01/15 02:01:11;;;;;;;4.63;3.53;;;6.90;99.90;;;;;;5019508;28;20087;-77
2022/01/15 02:03:37;;;;;;;2.22;2.03;;;6.80;99.90;;;;;;5019501;28;20046;-77
2022/01/15 02:06:03;;;;;;;1.98;1.85;;;6.80;99.90;;;;;;5017665;28;20053;-77
2022/01/15 02:08:32;;;;;;;2.13;1.88;;;6.80;99.90;;;;;;5019120;28;20034;-77
2022/01/15 02:11:00;;;;;;;2.03;1.92;;;6.80;99.90;;;;;;5019690;28;20072;-77
2022/01/15 02:13:25;;;;;;;1.58;1.48;;;6.80;99.90;;;;;;5004008;22;20050;-77
2022/01/15 02:15:51;;;;;;;1.88;1.75;;;6.80;99.90;;;;;;5000959;28;20057;-77
2022/01/15 02:18:16;;;;;;;1.95;1.58;;;6.80;99.90;;;;;;4970249;28;20168;-77
2022/01/15 02:26:00;;;;;;;3.50;2.25;;;6.80;99.90;;;;;;5003496;28;20085;-77
2022/01/15 02:28:33;;;;;;;1.90;1.65;;;6.80;99.90;;;;;;5004317;28;20045;-77
2022/01/15 02:31:01;;;;;;;1.95;1.40;;;6.80;99.90;;;;;;5004311;28;20065;-77
2022/01/15 02:33:27;;;;;;;6.28;1.83;;;6.80;99.90;;;;;;5003710;28;20484;-77
2022/01/15 02:35:53;;;;;;;1.95;1.75;;;6.80;99.90;;;;;;5002976;28;20447;-77
2022/01/15 02:38:19;;;;;;;2.22;1.30;;;6.80;99.90;;;;;;5002898;28;20124;-77
2022/01/15 02:40:45;;;;;;;1.85;1.75;;;6.80;99.90;;;;;;5004343;28;20631;-77
2022/01/15 02:43:15;;;;;;;1.65;1.35;;;6.80;99.90;;;;;;5004281;28;20049;-77
2022/01/15 02:45:46;;;;;;;1.48;1.25;;;6.80;99.90;;;;;;5004265;28;20041;-77
2022/01/15 02:48:15;;;;;;;1.63;1.52;;;6.80;99.90;;;;;;5004380;28;20111;-77
2022/01/15 02:50:42;;;;;;;2.20;2.08;;;6.80;99.90;;;;;;4985149;28;20042;-77
2022/01/15 02:53:09;;;;;;;1.38;1.33;;;6.80;99.90;;;;;;4986587;28;20129;-77
2022/01/15 02:55:40;;;;;;;1.33;1.33;;;6.80;99.90;;;;;;5003698;28;20049;-77
2022/01/15 02:58:05;;;;;;;2.30;1.55;;;6.80;99.90;;;;;;5004207;28;20064;-77
2022/01/15 03:00:31;;;;;;;1.38;1.27;;;6.80;99.90;;;;;;5003186;28;20535;-77
2022/01/15 03:02:56;;;;;;;5.53;3.45;;;6.80;99.90;;;;;;4986581;28;20045;-78
2022/01/15 03:05:22;;;;;;;4.13;3.78;;;6.80;99.90;;;;;;5002838;28;20466;-77
2022/01/15 03:07:47;;;;;;;3.25;2.03;;;6.80;99.90;;;;;;5003621;28;20052;-77
2022/01/15 03:10:13;;;;;;;2.22;1.35;;;6.80;99.90;;;;;;5004420;28;20052;-77
2022/01/15 03:12:39;;;;;;;0.98;0.85;;;6.80;99.90;;;;;;5002901;28;20034;-77
2022/01/15 03:15:07;;;;;;;1.95;1.48;;;6.80;99.90;;;;;;5003540;28;20060;-77
2022/01/15 03:17:33;;;;;;;1.65;1.35;;;6.80;99.90;;;;;;5003463;28;20109;-77
2022/01/15 03:20:00;;;;;;;2.00;1.90;;;6.80;99.90;;;;;;5003133;28;20042;-77
2022/01/15 03:22:25;;;;;;;1.17;1.00;;;6.80;99.90;;;;;;5002400;28;20046;-77
2022/01/15 03:24:51;;;;;;;3.33;3.10;;;6.80;99.90;;;;;;5003653;28;20377;-77
2022/01/15 03:27:17;;;;;;;1.15;1.10;;;6.80;99.90;;;;;;5002660;28;20511;-77
2022/01/15 03:29:44;;;;;;;4.72;2.25;;;6.80;99.90;;;;;;4985648;28;20026;-77
2022/01/15 03:32:09;;;;;;;0.90;0.80;;;6.80;99.90;;;;;;5003149;28;20057;-77
2022/01/15 03:34:35;;;;;;;3.78;1.45;;;6.80;99.90;;;;;;5002714;28;20034;-77
2022/01/15 03:37:01;;;;;;;4.78;2.17;;;6.80;99.90;;;;;;5002683;28;20041;-77
2022/01/15 03:39:28;;;;;;;1.40;1.35;;;6.70;99.90;;;;;;5002586;28;20081;-77
2022/01/15 03:41:54;;;;;;;2.78;2.00;;;6.80;99.90;;;;;;5002974;28;20045;-77
2022/01/15 03:44:19;;;;;;;3.83;2.42;;;6.80;99.90;;;;;;5003123;28;20496;-77
2022/01/15 03:46:45;;;;;;;2.08;1.55;;;6.70;99.90;;;;;;4985536;28;20084;-77
2022/01/15 03:49:11;;;;;;;1.42;1.17;;;6.80;99.90;;;;;;5003163;28;20543;-77
2022/01/15 03:51:36;;;;;;;2.92;1.73;;;6.80;99.90;;;;;;4984665;28;20050;-77
2022/01/15 03:54:02;;;;;;;2.58;2.38;;;6.80;99.90;;;;;;5002529;28;20040;-77
2022/01/15 03:56:29;;;;;;;0.95;0.95;;;6.80;99.90;;;;;;5002500;28;20715;-77
2022/01/15 03:58:55;;;;;;;2.70;2.13;;;6.80;99.90;;;;;;5002727;28;20056;-77
2022/01/15 04:01:20;;;;;;;2.35;2.15;;;6.80;99.90;;;;;;5001937;28;20540;-77
2022/01/15 04:03:46;;;;;;;7.60;1.88;;;6.80;99.90;;;;;;4986227;28;20050;-77
2022/01/15 04:06:11;;;;;;;1.45;1.33;;;6.80;99.90;;;;;;5002089;28;20045;-77
2022/01/15 04:08:37;;;;;;;1.42;1.40;;;6.70;99.90;;;;;;5002539;28;20061;-77
2022/01/15 04:11:02;;;;;;;3.85;1.75;;;6.70;99.90;;;;;;4968972;28;20053;-77
2022/01/15 04:13:28;;;;;;;1.17;1.13;;;6.70;99.90;;;;;;4980754;28;20050;-77
2022/01/15 04:15:54;;;;;;;1.73;1.63;;;6.80;99.90;;;;;;4981916;28;20122;-77
2022/01/15 04:18:23;;;;;;;8.35;1.67;;;6.70;99.90;;;;;;4982810;28;20436;-77
2022/01/15 04:20:51;;;;;;;2.75;1.90;;;6.70;99.90;;;;;;4984030;28;20034;-77
2022/01/15 04:23:16;;;;;;;2.17;2.08;;;6.70;99.90;;;;;;4984913;28;20042;-77
2022/01/15 04:25:42;;;;;;;2.38;2.20;;;6.70;99.90;;;;;;5002673;28;20042;-77
2022/01/15 04:28:08;;;;;;;1.83;1.63;;;6.70;99.90;;;;;;5002053;28;20034;-77
2022/01/15 04:30:34;;;;;;;2.05;1.92;;;6.70;99.90;;;;;;4984579;28;20053;-78
2022/01/15 04:33:00;;;;;;;1.65;1.52;;;6.70;99.90;;;;;;5002181;28;20045;-77
2022/01/15 04:35:26;;;;;;;3.78;1.35;;;6.70;99.90;;;;;;4983419;28;20535;-77
2022/01/15 04:37:57;;;;;;;1.33;1.23;;;6.70;99.90;;;;;;5002238;28;20136;-77
2022/01/15 04:40:22;;;;;;;0.77;0.68;;;6.70;99.90;;;;;;5001897;28;20046;-77
2022/01/15 04:42:48;;;;;;;1.98;1.85;;;6.70;99.90;;;;;;5001300;28;20038;-77
2022/01/15 04:45:14;;;;;;;1.05;0.95;;;6.70;99.90;;;;;;5002509;28;20665;-77
2022/01/15 04:47:40;;;;;;;2.22;1.42;;;6.70;99.90;;;;;;5001696;28;20041;-78
2022/01/15 04:50:10;;;;;;;0.68;0.68;;;6.70;99.90;;;;;;5000836;28;20548;-77
2022/01/15 04:52:36;;;;;;;0.57;0.57;;;6.70;99.90;;;;;;5001054;28;20536;-77
2022/01/15 04:55:03;;;;;;;0.75;0.75;;;6.70;99.90;;;;;;5001991;28;20037;-77
2022/01/15 04:57:29;;;;;;;3.60;0.45;;;6.70;99.90;;;;;;4983232;28;20045;-77
2022/01/15 04:59:54;;;;;;;0.80;0.80;;;6.70;99.90;;;;;;5001649;28;20050;-77
2022/01/15 05:02:20;;;;;;;0.32;0.32;;;6.70;99.90;;;;;;4983938;28;20076;-77
2022/01/15 05:04:46;;;;;;;1.00;0.90;;;6.70;99.90;;;;;;5001780;28;20060;-77
2022/01/15 05:07:11;;;;;;;0.93;0.93;;;6.70;99.90;;;;;;4983525;28;20045;-77
2022/01/15 05:09:37;;;;;;;0.65;0.65;;;6.70;99.90;;;;;;4983990;28;20384;-77
2022/01/15 05:12:21;;;;;;;1.00;1.00;;;6.70;99.90;;;;;;5000690;28;20488;-77
2022/01/15 05:14:46;;;;;;;0.77;0.77;;;6.70;99.90;;;;;;4981027;28;20516;-77
2022/01/15 05:17:12;;;;;;;0.98;0.98;;;6.70;99.90;;;;;;4981822;28;20051;-77
2022/01/15 05:19:37;;;;;;;0.77;0.77;;;6.60;99.90;;;;;;4981775;28;20677;-77
2022/01/15 05:22:03;;;;;;;0.60;0.60;;;6.60;99.90;;;;;;4980325;28;20046;-77
2022/01/15 05:24:30;;;;;;;0.68;0.65;;;6.60;99.90;;;;;;4981629;28;20053;-77
2022/01/15 05:26:56;;;;;;;1.15;0.85;;;6.60;99.90;;;;;;4964581;28;20089;-77
2022/01/15 05:29:22;;;;;;;0.55;0.55;;;6.60;99.90;;;;;;4978770;28;20043;-77
2022/01/15 05:31:48;;;;;;;0.82;0.75;;;6.60;99.90;;;;;;4962376;28;20049;-77
2022/01/15 05:34:13;;;;;;;0.38;0.38;;;6.50;99.90;;;;;;4977924;28;20106;-77
2022/01/15 05:36:42;;;;;;;0.68;0.68;;;6.50;99.90;;;;;;4976849;28;20049;-77
2022/01/15 05:39:08;;;;;;;0.47;0.47;;;6.60;99.90;;;;;;4980188;28;20042;-77
2022/01/15 05:41:34;;;;;;;0.57;0.57;;;6.60;99.90;;;;;;4981433;28;20034;-77
2022/01/15 05:44:02;;;;;;;0.57;0.55;;;6.50;99.90;;;;;;4980001;28;20126;-77
2022/01/15 05:46:29;;;;;;;1.15;0.90;;;6.60;99.90;;;;;;4981360;28;20046;-77
2022/01/15 05:48:54;;;;;;;1.52;1.42;;;6.50;99.90;;;;;;4980341;28;20104;-77
2022/01/15 05:51:20;;;;;;;0.93;0.85;;;6.50;99.90;;;;;;4979342;28;20069;-77
2022/01/15 05:53:46;;;;;;;1.33;1.15;;;6.50;99.90;;;;;;4980417;28;20104;-77
2022/01/15 05:56:11;;;;;;;1.63;1.52;;;6.50;99.90;;;;;;4981712;28;20502;-77
2022/01/15 05:58:37;;;;;;;1.40;1.08;;;6.50;99.90;;;;;;4981195;28;20523;-77
2022/01/15 06:01:02;;;;;;;1.33;1.23;;;6.40;99.90;;;;;;4963970;28;20057;-77
2022/01/15 06:03:28;;;;;;;2.78;1.85;;;6.50;99.90;;;;;;4981206;28;20050;-77
2022/01/15 06:05:54;;;;;;;1.02;0.93;;;6.50;99.90;;;;;;4979263;28;20448;-77
2022/01/15 06:08:19;;;;;;;1.13;1.02;;;6.50;99.90;;;;;;4981107;28;20282;-77
2022/01/15 06:10:45;;;;;;;1.77;1.52;;;6.50;99.90;;;;;;4981450;28;20484;-77
2022/01/15 06:13:10;;;;;;;1.27;1.17;;;6.40;99.90;;;;;;4978091;28;20475;-77
2022/01/15 06:15:36;;;;;;;1.02;1.02;;;6.40;99.90;;;;;;4982983;28;20970;-77
2022/01/15 06:18:01;;;;;;;1.00;0.68;;;6.40;99.90;;;;;;5000761;28;20125;-77
2022/01/15 06:20:27;;;;;;;2.08;0.90;;;6.40;99.90;;;;;;4982707;28;20046;-77
2022/01/15 06:22:52;;;;;;;0.55;0.55;;;6.30;99.90;;;;;;5000110;28;20057;-77
2022/01/15 06:25:18;;;;;;;0.55;0.55;;;6.30;99.90;;;;;;5001000;28;20527;-77
2022/01/15 06:27:43;;;;;;;0.68;0.68;;;6.30;99.90;;;;;;4982854;28;20535;-77
2022/01/15 06:30:10;;;;;;;1.27;1.17;;;6.30;99.90;;;;;;4982777;28;20463;-77
2022/01/15 06:32:36;;;;;;;0.80;0.80;;;6.30;99.90;;;;;;5000664;28;20064;-77
2022/01/15 06:35:11;;;;;;;1.05;1.05;;;6.30;99.90;;;;;;4999477;28;20492;-77
2022/01/15 06:37:36;;;;;;;3.13;0.85;;;6.20;99.90;;;;;;4999894;28;20627;-77
2022/01/15 06:40:04;;;;;;;0.40;0.40;;;6.30;99.90;;;;;;5000541;28;20073;-77
2022/01/15 06:42:29;;;;;;;2.20;0.88;;;6.20;99.90;;;;;;5000508;28;20128;-77
2022/01/15 06:44:55;;;;;;;0.35;0.35;;;6.30;99.90;;;;;;5000538;28;20125;-77
2022/01/15 06:47:21;;;;;;;2.10;1.13;;;6.20;99.90;;;;;;4982101;28;20108;-77
2022/01/15 06:49:46;;;;;;;0.77;0.77;;;6.20;99.90;;;;;;4981390;28;20167;-80
2022/01/15 06:52:12;;;;;;;0.45;0.45;;;6.20;99.90;;;;;;4995841;28;20133;-77
2022/01/15 06:54:37;;;;;;;1.13;0.63;;;6.20;99.90;;;;;;4997453;28;20046;-77
2022/01/15 06:57:03;;;;;;;0.55;0.50;;;6.20;99.90;;;;;;4997977;28;20121;-78
2022/01/15 06:59:29;;;;;;;0.47;0.47;;;6.20;99.90;;;;;;4998722;28;20132;-77
2022/01/15 07:01:54;;;;;;;1.45;0.95;;;6.10;99.90;;;;;;4998774;28;20042;-77
2022/01/15 07:04:20;;;;;;;0.50;0.50;;;6.20;99.90;;;;;;5000115;28;20056;-77
2022/01/15 07:06:47;;;;;;;0.63;0.43;;;6.20;99.90;;;;;;4983964;28;20499;-79
2022/01/15 07:09:13;;;;;;;0.65;0.65;;;6.10;99.90;;;;;;4985763;28;20041;-78
2022/01/15 07:11:38;;;;;;;0.63;0.63;;;6.10;99.90;;;;;;4987920;28;20041;-78
2022/01/15 07:14:04;;;;;;;1.08;1.08;;;6.10;99.90;;;;;;4985087;28;20046;-77
2022/01/15 07:16:29;;;;;;;0.45;0.45;;;6.10;99.90;;;;;;4984679;28;20049;-77
2022/01/15 07:18:55;;;;;;;0.32;0.32;;;6.10;99.90;;;;;;5000792;28;20455;-77
2022/01/15 07:21:21;;;;;;;0.82;0.55;;;6.10;99.90;;;;;;5001308;28;20049;-76
2022/01/15 07:23:47;;;;;;;0.50;0.50;;;6.10;99.90;;;;;;5002912;28;20095;-79
2022/01/15 07:26:16;;;;;;;0.50;0.50;;;6.10;99.90;;;;;;4985292;28;20053;-78
2022/01/15 07:28:41;;;;;;;0.98;0.82;;;6.10;99.90;;;;;;5002869;28;20073;-79
2022/01/15 07:31:08;;;;;;;0.50;0.50;;;6.00;99.90;;;;;;4984687;28;20054;-79
2022/01/15 07:33:34;;;;;;;3.40;0.88;;;6.10;99.90;;;;;;4983643;28;20049;-77
2022/01/15 07:36:00;;;;;;;0.68;0.68;;;6.00;99.90;;;;;;4984242;28;20050;-77
2022/01/15 07:38:26;;;;;;;1.00;0.98;;;6.10;99.90;;;;;;5001543;28;20416;-77
2022/01/15 07:40:57;;;;;;;1.17;1.13;;;6.00;99.90;;;;;;5001583;28;20072;-78
2022/01/15 07:43:23;;;;;;;1.27;1.27;;;6.00;99.90;;;;;;5001481;28;20095;-77
2022/01/15 07:45:51;;;;;;;2.85;1.63;;;6.00;99.90;;;;;;4983443;28;20117;-77
2022/01/15 07:48:17;;;;;;;0.82;0.80;;;6.00;99.90;;;;;;4984259;28;20073;-77
2022/01/15 07:50:43;;;;;;;0.63;0.63;;;6.10;99.90;;;;;;5001654;28;20042;-78
2022/01/15 07:53:09;;;;;;;0.68;0.68;;;6.00;99.90;;;;;;4983743;28;20480;-79
2022/01/15 07:55:35;;;;;;;5.50;1.00;;;6.10;99.90;;;;;;4984448;28;20444;-77
2022/01/15 07:58:04;;;;;;;0.30;0.30;;;6.00;99.90;;;;;;4968819;28;20132;-79
2022/01/15 08:00:33;;;;;;;0.50;0.50;;;6.00;99.90;;;;;;4984361;28;20062;-78
2022/01/15 08:02:59;;;;;;;2.00;0.82;;;6.00;99.90;;;;;;4984303;28;20067;-77
2022/01/15 08:05:25;;;;;;;0.70;0.70;;;6.00;99.90;;;;;;5000365;28;20042;-77
2022/01/15 08:07:50;;;;;;;0.30;0.30;;;6.00;99.90;;;;;;4999405;28;20061;-78
2022/01/15 08:10:16;;;;;;;1.42;1.38;;;6.00;99.90;;;;;;4952593;28;20725;-78
2022/01/15 08:12:44;;;;;;;2.15;1.65;;;6.00;99.90;;;;;;4974982;28;20404;-79
2022/01/15 08:15:10;;;;;;;0.50;0.50;;;6.00;99.90;;;;;;4989401;28;20587;-77
2022/01/15 08:17:35;;;;;;;0.70;0.70;;;6.00;99.90;;;;;;5000129;28;20121;-77
2022/01/15 08:20:01;;;;;;;0.88;0.60;;;5.90;99.90;;;;;;4984229;28;20415;-78
2022/01/15 08:22:27;;;;;;;0.95;0.63;;;5.90;99.90;;;;;;5002513;28;20050;-78
2022/01/15 08:24:52;;;;;;;1.08;1.05;;;6.00;99.90;;;;;;4985844;28;20559;-77
2022/01/15 08:27:18;;;;;;;1.35;1.25;;;6.00;99.90;;;;;;5018052;28;20072;-78
2022/01/15 08:29:43;;;;;;;2.05;0.95;;;6.00;99.90;;;;;;5019434;28;20365;-78
2022/01/15 08:32:09;;;;;;;2.28;1.10;;;6.00;99.90;;;;;;5021433;28;20089;-78
2022/01/15 08:34:34;;;;;;;0.60;0.60;;;6.00;99.90;;;;;;4986712;28;20131;-77
2022/01/15 08:37:00;;;;;;;0.90;0.90;;;6.00;99.90;;;;;;5004055;28;20057;-78
2022/01/15 08:39:25;;;;;;;0.47;0.47;;;6.00;99.90;;;;;;5020965;28;20038;-78
2022/01/15 08:41:51;;;;;;;1.90;1.80;;;6.00;99.90;;;;;;5004593;28;20617;-77
2022/01/15 08:44:21;;;;;;;1.20;0.80;;;6.00;99.90;;;;;;5021779;28;20050;-79
2022/01/15 08:46:47;;;;;;;1.50;1.40;;;5.90;99.90;;;;;;5003857;28;20054;-78
2022/01/15 08:49:13;;;;;;;1.40;0.95;;;5.90;99.90;;;;;;4983523;28;20061;-79
2022/01/15 08:51:39;;;;;;;0.88;0.82;;;5.90;99.90;;;;;;4981421;28;20068;-78
2022/01/15 08:54:05;;;;;;;1.00;1.00;;;5.90;99.90;;;;;;4971939;28;20396;-78
2022/01/15 08:56:33;;;;;;;0.55;0.55;;;5.90;99.90;;;;;;4955933;28;20041;-76
2022/01/15 08:58:59;;;;;;;0.77;0.77;;;5.90;99.90;;;;;;4991653;28;20042;-77
2022/01/15 09:01:25;;;;;;;0.75;0.75;;;5.90;99.90;;;;;;4990221;28;20033;-78
2022/01/15 09:03:50;;;;;;;7.32;2.08;;;5.90;99.90;;;;;;4989548;28;20452;-78
2022/01/15 09:06:16;;;;;;;0.80;0.52;;;5.90;99.90;;;;;;4994178;28;20066;-78
2022/01/15 09:08:43;;;;;;;0.98;0.95;;;5.90;99.90;;;;;;4991484;28;20137;-79
2022/01/15 09:11:09;;;;;;;1.42;1.17;;;5.80;99.90;;;;;;4962635;28;20495;-77
2022/01/15 09:13:34;;;;;;;2.55;1.83;;;5.80;99.90;;;;;;4991505;28;20052;-78
2022/01/15 09:16:02;;;;;;;2.47;1.85;;;5.80;99.90;;;;;;4988363;28;20445;-78
2022/01/15 09:18:27;;;;;;;0.98;0.95;;;5.80;99.90;;;;;;4999790;28;20527;-77
2022/01/15 09:20:53;;;;;;;1.25;1.23;;;5.80;99.90;;;;;;4983279;28;20125;-77
2022/01/15 09:23:19;;;;;;;0.88;0.75;;;5.80;99.90;;;;;;4973292;28;20088;-78
2022/01/15 09:25:45;;;;;;;1.77;1.67;;;5.80;99.90;;;;;;4996268;28;20042;-77
2022/01/15 09:30:55;;;;;;;1.88;1.75;;;5.80;99.90;;;;;;4990344;28;20072;-78
2022/01/15 09:33:21;;;;;;;1.17;1.10;;;5.80;99.90;;;;;;4974598;28;20124;-78
2022/01/15 09:35:46;;;;;;;1.08;1.05;;;5.80;99.90;;;;;;4999299;28;20479;-78
2022/01/15 09:38:15;;;;;;;1.35;1.30;;;5.80;99.90;;;;;;4980045;28;20046;-78
2022/01/15 09:40:41;;;;;;;1.35;1.25;;;5.80;99.90;;;;;;4980441;28;20335;-79
2022/01/15 09:43:08;;;;;;;0.85;0.85;;;5.80;99.90;;;;;;4963640;28;20054;-78
2022/01/15 09:45:35;;;;;;;1.92;1.45;;;5.80;99.90;;;;;;4980790;28;20085;-78
2022/01/15 09:48:03;;;;;;;1.25;1.17;;;5.80;99.90;;;;;;4980099;28;20126;-78
2022/01/15 09:50:33;;;;;;;1.35;1.25;;;5.80;99.90;;;;;;4968813;28;20280;-78
2022/01/15 09:52:58;;;;;;;1.42;1.33;;;5.80;99.90;;;;;;4993612;28;20041;-79
2022/01/15 09:55:25;;;;;;;1.17;1.02;;;5.80;99.90;;;;;;4988162;28;20526;-78
2022/01/15 09:57:52;;;;;;;1.35;1.27;;;5.80;99.90;;;;;;5000438;28;20045;-77
2022/01/15 10:00:19;;;;;;;2.97;1.67;;;5.80;99.90;;;;;;4995141;28;20129;-78
2022/01/15 10:02:47;;;;;;;1.55;1.45;;;5.80;99.90;;;;;;4948235;28;20050;-79
2022/01/15 10:05:15;;;;;;;1.33;1.23;;;5.80;99.90;;;;;;4963029;28;20081;-77
2022/01/15 10:08:17;;;;;;;1.80;1.63;;;5.90;99.90;;;;;;4963020;28;20493;-77
2022/01/15 10:10:50;;;;;;;1.55;1.45;;;5.90;99.90;;;;;;4936885;28;20392;-82
2022/01/15 10:13:26;;;;;;;1.80;1.70;;;5.90;99.90;;;;;;4976760;28;20105;-90
2022/01/15 10:16:17;;;;;;;1.45;1.35;;;5.90;99.90;;;;;;4939315;28;20279;-91
2022/01/15 10:18:47;;;;;;;1.27;1.25;;;5.90;99.90;;;;;;4968318;28;20078;-84
2022/01/15 10:21:18;;;;;;;2.45;1.95;;;5.90;99.90;;;;;;4923783;28;20047;-84
2022/01/15 10:23:57;;;;;;;2.92;1.90;;;5.90;99.90;;;;;;4954348;28;20394;-89
2022/01/15 10:26:32;;;;;;;1.75;1.65;;;5.90;99.90;;;;;;4951101;28;20067;-85
2022/01/15 10:29:01;;;;;;;1.75;1.30;;;5.90;99.90;;;;;;4953894;28;20578;-86
2022/01/15 10:31:32;;;;;;;5.22;1.98;;;5.90;99.90;;;;;;4968235;28;20477;-86
2022/01/15 10:33:59;;;;;;;3.50;2.25;;;5.90;99.90;;;;;;4970075;28;20043;-84
2022/01/15 10:36:34;;;;;;;2.78;2.53;;;5.90;99.90;;;;;;4960785;28;20653;-83
2022/01/15 10:39:18;;;;;;;1.27;1.25;;;5.90;99.90;;;;;;4980906;28;20066;-84
2022/01/15 10:41:43;;;;;;;3.15;2.20;;;6.00;99.90;;;;;;4964341;28;20046;-83
2022/01/15 10:44:33;;;;;;;4.75;1.33;;;5.90;99.90;;;;;;4964267;28;20665;-82
2022/01/15 10:47:07;;;;;;;1.63;1.52;;;5.90;99.90;;;;;;4963413;28;20121;-82
2022/01/15 10:49:33;;;;;;;1.67;1.58;;;5.90;99.90;;;;;;4981140;28;20425;-84
2022/01/15 10:52:06;;;;;;;1.05;1.05;;;6.00;99.90;;;;;;4981525;28;20452;-84
2022/01/15 10:54:34;;;;;;;2.10;1.95;;;6.00;99.90;;;;;;4978367;28;20085;-84
2022/01/15 10:57:10;;;;;;;2.75;2.50;;;6.00;99.90;;;;;;4972033;28;20426;-81
2022/01/15 10:59:36;;;;;;;4.78;3.17;;;6.00;99.90;;;;;;4969323;28;20129;-76
2022/01/15 11:02:18;;;;;;;2.53;1.30;;;6.00;99.90;;;;;;4966059;28;20501;-75
2022/01/15 11:04:44;;;;;;;3.50;2.63;;;6.00;99.90;;;;;;4962696;28;20042;-75
2022/01/15 11:07:19;;;;;;;5.43;2.10;;;6.00;99.90;;;;;;4964805;28;20049;-75
2022/01/15 11:09:47;;;;;;;2.17;1.98;;;6.00;99.90;;;;;;4963407;28;20057;-76
2022/01/15 11:12:14;;;;;;;2.63;2.08;;;6.00;99.90;;;;;;4962094;28;20121;-74
2022/01/15 11:14:40;;;;;;;3.90;3.05;;;6.00;99.90;;;;;;4988809;28;20137;-75
2022/01/15 11:17:06;;;;;;;4.63;2.83;;;6.00;99.90;;;;;;5003728;28;20046;-75
2022/01/15 11:19:34;;;;;;;2.67;2.47;;;6.00;99.90;;;;;;4982841;28;20057;-75
2022/01/15 11:22:01;;;;;;;7.30;4.47;;;6.00;99.90;;;;;;4985545;28;20088;-75
2022/01/15 11:24:27;;;;;;;2.28;2.15;;;6.00;99.90;;;;;;4985673;28;20042;-75
2022/01/15 11:26:58;;;;;;;5.78;3.60;;;6.00;99.90;;;;;;4985822;28;20116;-75
2022/01/15 11:29:28;;;;;;;4.18;3.78;;;6.00;99.90;;;;;;4983524;28;20053;-75
2022/01/15 11:32:00;;;;;;;5.03;4.32;;;6.00;99.90;;;;;;4986259;28;20031;-75
2022/01/15 11:34:27;;;;;;;3.90;3.50;;;6.00;99.90;;;;;;4996269;28;20050;-74
2022/01/15 11:36:53;;;;;;;5.43;3.78;;;6.00;99.90;;;;;;4977964;28;20381;-75
2022/01/15 11:39:28;;;;;;;4.45;3.90;;;5.90;99.90;;;;;;5000799;28;20124;-76
2022/01/15 11:41:55;;;;;;;5.40;3.97;;;5.90;99.90;;;;;;4984634;28;20054;-75
2022/01/15 11:44:33;;;;;;;6.35;4.70;;;5.90;99.90;;;;;;4984271;28;20096;-76
2022/01/15 11:47:26;;;;;;;11.45;4.57;;;5.90;99.90;;;;;;4993450;28;20373;-81
2022/01/15 11:49:52;;;;;;;;;;;5.90;99.90;;;;;;4981535;28;20050;-82
2022/01/15 11:52:19;;;;;;;7.97;5.82;;;5.90;99.90;;;;;;4982819;28;20020;-84
2022/01/15 11:54:58;;;;;;;7.07;5.75;;;5.90;99.90;;;;;;4982922;28;20051;-84
2022/01/15 11:57:58;;;;;;;5.40;4.50;;;5.90;99.90;;;;;;4982208;28;20042;-86
2022/01/15 12:00:47;;;;;;;6.35;3.83;;;5.90;99.90;;;;;;5004057;28;20060;-83
2022/01/15 12:03:13;;;;;;;6.38;5.88;;;5.90;99.90;;;;;;5004438;28;20026;-82
2022/01/15 12:05:41;;;;;;;12.27;7.57;;;5.90;99.90;;;;;;4992979;28;20038;-83
2022/01/15 12:08:08;;;;;;;6.22;4.88;;;5.90;99.90;;;;;;4994445;28;20580;-84
2022/01/15 12:10:45;;;;;;;8.45;4.90;;;5.90;99.90;;;;;;4971483;28;20046;-78
2022/01/15 12:13:19;;;;;;;6.07;4.80;;;5.90;99.90;;;;;;4991599;28;20515;-83
2022/01/15 12:15:46;;;;;;;4.75;4.25;;;5.90;99.90;;;;;;4999992;28;20503;-77
2022/01/15 12:18:23;;;;;;;6.90;6.15;;;5.90;99.90;;;;;;5001790;28;20112;-84
2022/01/15 12:20:54;;;;;;;10.40;6.28;;;5.90;99.90;;;;;;5000712;28;20049;-85
2022/01/15 12:23:20;;;;;;;14.70;5.63;;;5.90;99.90;;;;;;4991211;28;20038;-77
2022/01/15 12:25:47;;;;;;;11.10;4.88;;;5.90;99.90;;;;;;4972501;28;20464;-81
2022/01/15 12:28:15;;;;;;;7.10;6.43;;;5.90;99.90;;;;;;5001201;28;20046;-79
2022/01/15 12:30:50;;;;;;;7.25;6.55;;;5.90;99.90;;;;;;4999344;28;20033;-83
2022/01/15 12:33:17;;;;;;;7.57;6.00;;;5.90;99.90;;;;;;5001788;28;20334;-84
2022/01/15 12:35:52;;;;;;;4.85;4.20;;;5.90;99.90;;;;;;4995648;28;20046;-83
2022/01/15 12:38:25;;;;;;;5.28;4.38;;;5.90;99.90;;;;;;5007225;28;20189;-81
2022/01/15 12:41:02;;;;;;;19.08;4.18;;;5.80;99.90;;;;;;4983521;28;20450;-81
2022/01/15 12:43:36;;;;;;;5.78;5.28;;;5.80;99.90;;;;;;4985993;28;20119;-84
2022/01/15 12:46:09;;;;;;;6.95;4.40;;;5.80;99.90;;;;;;5000403;28;20049;-85
2022/01/15 12:48:36;;;;;;;7.30;4.80;;;5.80;99.90;;;;;;5000463;28;20389;-77
2022/01/15 12:51:11;;;;;;;4.18;3.83;;;5.70;99.90;;;;;;5009071;28;20042;-82
2022/01/15 12:53:40;;;;;;;6.20;5.60;;;5.80;99.90;;;;;;5018322;28;20084;-86
2022/01/15 12:56:14;;;;;;;5.53;4.53;;;5.70;99.90;;;;;;4983830;28;20050;-86
2022/01/15 12:58:40;;;;;;;3.78;3.45;;;5.70;99.90;;;;;;4980367;28;20134;-84
2022/01/15 13:01:09;;;;;;;11.25;4.85;;;5.70;99.90;;;;;;4965142;28;20045;-78
2022/01/15 13:03:39;;;;;;;7.75;3.65;;;5.70;99.90;;;;;;4997128;28;20482;-78
2022/01/15 13:06:06;;;;;;;5.00;4.53;;;5.70;99.90;;;;;;4967454;28;20049;-78
2022/01/15 13:08:36;;;;;;;6.10;4.18;;;5.70;99.90;;;;;;4982698;28;20057;-78
2022/01/15 13:11:15;;;;;;;4.50;4.20;;;5.70;99.90;;;;;;5000897;28;20044;-78
2022/01/15 13:13:46;;;;;;;6.43;5.22;;;5.70;99.90;;;;;;5010326;28;20049;-82
2022/01/15 13:16:14;;;;;;;7.95;4.28;;;5.70;99.90;;;;;;4974284;28;20461;-81
2022/01/15 13:18:42;;;;;;;7.80;5.30;;;5.70;99.90;;;;;;4991589;28;20488;-82
2022/01/15 13:21:16;;;;;;;5.70;5.20;;;5.70;99.90;;;;;;4975355;28;20045;-86